ADDS METAR Data INFO
IDs: Format: Raw Decoded Include TAF

Data at: 0453 UTC 25 May 2018

METAR for:PAKF (False Pass Arpt, AK, US)
Text:PAKF 250356Z AUTO VRB03KT 10SM SCT027 08/04 A2958 RMK AO2 SLP016 T00830039
Temperature: 8.3°C ( 47°F)
Dewpoint: 3.9°C ( 39°F) [RH = 74%]
Pressure (altimeter):29.58 inches Hg (1001.8 mb) [Sea level pressure: 1001.6 mb]
Winds:variable direction winds at 3 MPH (3 knots; 1.5 m/s)
Visibility:10 or more sm (16+ km)
Ceiling:at least 12,000 feet AGL
Clouds: scattered clouds at 2700 feet AGL
QC Flag:automated observation with no human augmentation
Text:PAKF 250312Z AUTO 15004KT 10SM SCT025 BKN046 OVC055 08/04 A2958 RMK AO2
Temperature: 8.0°C ( 46°F)
Dewpoint: 4.0°C ( 39°F) [RH = 76%]
Pressure (altimeter):29.58 inches Hg (1001.8 mb)
Winds:from the SSE (150 degrees) at 5 MPH (4 knots; 2.1 m/s)
Visibility:10 or more sm (16+ km)
Ceiling:4600 feet AGL
Clouds: scattered clouds at 2500 feet AGL, broken clouds at 4600 feet AGL, overcast cloud deck at 5500 feet AGL
QC Flag:automated observation with no human augmentation
Text:PAKF 250256Z AUTO 15007KT 10SM BKN027 BKN031 OVC050 08/04 A2958 RMK AO2 SLP016 60001 T00780039 56006
Temperature: 7.8°C ( 46°F)
Dewpoint: 3.9°C ( 39°F) [RH = 76%]
Pressure (altimeter):29.58 inches Hg (1001.8 mb) [Sea level pressure: 1001.6 mb]
Winds:from the SSE (150 degrees) at 8 MPH (7 knots; 3.6 m/s)
Visibility:10 or more sm (16+ km)
Ceiling:2700 feet AGL
Clouds: broken clouds at 2700 feet AGL, broken clouds at 3100 feet AGL, overcast cloud deck at 5000 feet AGL
QC Flag:automated observation with no human augmentation
Text:PAKF 250212Z AUTO 27006KT 10SM BKN023 OVC039 09/03 A2958 RMK AO2
Temperature: 9.0°C ( 48°F)
Dewpoint: 3.0°C ( 37°F) [RH = 66%]
Pressure (altimeter):29.58 inches Hg (1001.8 mb)
Winds:from the W (270 degrees) at 7 MPH (6 knots; 3.1 m/s)
Visibility:10 or more sm (16+ km)
Ceiling:2300 feet AGL
Clouds: broken clouds at 2300 feet AGL, overcast cloud deck at 3900 feet AGL
QC Flag:automated observation with no human augmentation
Text:PAKF 250156Z AUTO 16003KT 10SM SCT021 OVC037 08/04 A2958 RMK AO2 RAE46 SLP016 P0001 T00780039
Temperature: 7.8°C ( 46°F)
Dewpoint: 3.9°C ( 39°F) [RH = 76%]
Pressure (altimeter):29.58 inches Hg (1001.8 mb) [Sea level pressure: 1001.6 mb]
Winds:from the SSE (160 degrees) at 3 MPH (3 knots; 1.5 m/s)
Visibility:10 or more sm (16+ km)
Ceiling:3700 feet AGL
Clouds: scattered clouds at 2100 feet AGL, overcast cloud deck at 3700 feet AGL
QC Flag:automated observation with no human augmentation
Text:PAKF 250149Z AUTO 16004KT 10SM FEW022 OVC037 07/04 A2958 RMK AO2 RAE46 P0001
Temperature: 7.0°C ( 45°F)
Dewpoint: 4.0°C ( 39°F) [RH = 81%]
Pressure (altimeter):29.58 inches Hg (1001.8 mb)
Winds:from the SSE (160 degrees) at 5 MPH (4 knots; 2.1 m/s)
Visibility:10 or more sm (16+ km)
Ceiling:3700 feet AGL
Clouds: few clouds at 2200 feet AGL, overcast cloud deck at 3700 feet AGL
QC Flag:automated observation with no human augmentation
Text:PAKF 250056Z AUTO 12005KT 10SM -RA OVC019 07/04 A2959 RMK AO2 SLP020 P0000 T00670044
Temperature: 6.7°C ( 44°F)
Dewpoint: 4.4°C ( 40°F) [RH = 85%]
Pressure (altimeter):29.59 inches Hg (1002.1 mb) [Sea level pressure: 1002.0 mb]
Winds:from the ESE (120 degrees) at 6 MPH (5 knots; 2.6 m/s)
Visibility:10 or more sm (16+ km)
Ceiling:1900 feet AGL
Clouds: overcast cloud deck at 1900 feet AGL
Weather:-RA (light rain)
QC Flag:automated observation with no human augmentation
Text:PAKF 250028Z AUTO 12004KT 10SM -RA BKN015 BKN024 OVC046 06/04 A2959 RMK AO2 P0000
Temperature: 6.0°C ( 43°F)
Dewpoint: 4.0°C ( 39°F) [RH = 87%]
Pressure (altimeter):29.59 inches Hg (1002.1 mb)
Winds:from the ESE (120 degrees) at 5 MPH (4 knots; 2.1 m/s)
Visibility:10 or more sm (16+ km)
Ceiling:1500 feet AGL
Clouds: broken clouds at 1500 feet AGL, broken clouds at 2400 feet AGL, overcast cloud deck at 4600 feet AGL
Weather:-RA (light rain)
QC Flag:automated observation with no human augmentation
Text:PAKF 250020Z AUTO 00000KT 10SM -RA BKN013 BKN025 OVC044 07/04 A2959 RMK AO2 P0000
Temperature: 7.0°C ( 45°F)
Dewpoint: 4.0°C ( 39°F) [RH = 81%]
Pressure (altimeter):29.59 inches Hg (1002.1 mb)
Winds:calm
Visibility:10 or more sm (16+ km)
Ceiling:1300 feet AGL
Clouds: broken clouds at 1300 feet AGL, broken clouds at 2500 feet AGL, overcast cloud deck at 4400 feet AGL
Weather:-RA (light rain)
QC Flag:automated observation with no human augmentation
Text:PAKF 250013Z AUTO 00000KT 10SM -RA SCT013 BKN025 OVC045 06/04 A2960 RMK AO2 P0000
Temperature: 6.0°C ( 43°F)
Dewpoint: 4.0°C ( 39°F) [RH = 87%]
Pressure (altimeter):29.60 inches Hg (1002.5 mb)
Winds:calm
Visibility:10 or more sm (16+ km)
Ceiling:2500 feet AGL
Clouds: scattered clouds at 1300 feet AGL, broken clouds at 2500 feet AGL, overcast cloud deck at 4500 feet AGL
Weather:-RA (light rain)
QC Flag:automated observation with no human augmentation
Text:PAKF 250004Z AUTO 00000KT 10SM -RA SCT011 BKN032 OVC041 06/04 A2960 RMK AO2 P0000
Temperature: 6.0°C ( 43°F)
Dewpoint: 4.0°C ( 39°F) [RH = 87%]
Pressure (altimeter):29.60 inches Hg (1002.5 mb)
Winds:calm
Visibility:10 or more sm (16+ km)
Ceiling:3200 feet AGL
Clouds: scattered clouds at 1100 feet AGL, broken clouds at 3200 feet AGL, overcast cloud deck at 4100 feet AGL
Weather:-RA (light rain)
QC Flag:automated observation with no human augmentation
Text:PAKF 242356Z AUTO 14003KT 9SM -RA SCT011 BKN029 OVC037 06/04 A2960 RMK AO2 SLP022 P0015 60022 T00610044 10078 20056 50006
Temperature: 6.1°C ( 43°F)
Dewpoint: 4.4°C ( 40°F) [RH = 89%]
Pressure (altimeter):29.60 inches Hg (1002.5 mb) [Sea level pressure: 1002.2 mb]
Winds:from the SE (140 degrees) at 3 MPH (3 knots; 1.5 m/s)
Visibility: 9 sm ( 14 km)
Ceiling:2900 feet AGL
Clouds: scattered clouds at 1100 feet AGL, broken clouds at 2900 feet AGL, overcast cloud deck at 3700 feet AGL
Weather:-RA (light rain)
QC Flag:automated observation with no human augmentation
Text:PAKF 242256Z AUTO 13003KT 4SM RA BR BKN026 OVC031 06/03 A2960 RMK AO2 SLP023 P0007 T00560033
Temperature: 5.6°C ( 42°F)
Dewpoint: 3.3°C ( 38°F) [RH = 85%]
Pressure (altimeter):29.60 inches Hg (1002.5 mb) [Sea level pressure: 1002.3 mb]
Winds:from the SE (130 degrees) at 3 MPH (3 knots; 1.5 m/s)
Visibility: 4 sm ( 6 km)
Ceiling:2600 feet AGL
Clouds: broken clouds at 2600 feet AGL, overcast cloud deck at 3100 feet AGL
Weather:RA BR (moderate rain, mist)
QC Flag:automated observation with no human augmentation

TAF for:PAKF (False Pass Arpt, AK, US)
Text:No data found